sensor_id;sensor_type;location;lat;lon;timestamp;P1;durP1;ratioP1;P2;durP2;ratioP2
6689;SDS011;3382;51.576;8.076;2023-02-28T00:00:01;5.80;;;3.13;;
6689;SDS011;3382;51.576;8.076;2023-02-28T00:02:34;5.73;;;3.73;;
6689;SDS011;3382;51.576;8.076;2023-02-28T00:05:07;6.27;;;3.03;;
6689;SDS011;3382;51.576;8.076;2023-02-28T00:07:34;3.73;;;3.10;;
6689;SDS011;3382;51.576;8.076;2023-02-28T00:10:00;5.60;;;3.20;;
6689;SDS011;3382;51.576;8.076;2023-02-28T00:12:26;4.10;;;3.33;;
6689;SDS011;3382;51.576;8.076;2023-02-28T00:14:52;5.57;;;3.33;;
6689;SDS011;3382;51.576;8.076;2023-02-28T00:17:18;5.40;;;3.40;;
6689;SDS011;3382;51.576;8.076;2023-02-28T00:19:46;4.37;;;3.20;;
6689;SDS011;3382;51.576;8.076;2023-02-28T00:22:16;5.23;;;3.40;;
6689;SDS011;3382;51.576;8.076;2023-02-28T00:24:42;6.77;;;3.63;;
6689;SDS011;3382;51.576;8.076;2023-02-28T00:27:07;10.00;;;3.10;;
6689;SDS011;3382;51.576;8.076;2023-02-28T00:29:33;6.50;;;3.30;;
6689;SDS011;3382;51.576;8.076;2023-02-28T00:31:59;4.47;;;3.40;;
6689;SDS011;3382;51.576;8.076;2023-02-28T00:34:25;4.10;;;3.70;;
6689;SDS011;3382;51.576;8.076;2023-02-28T00:36:50;5.90;;;3.57;;
6689;SDS011;3382;51.576;8.076;2023-02-28T00:39:16;4.10;;;3.30;;
6689;SDS011;3382;51.576;8.076;2023-02-28T00:41:42;5.37;;;3.70;;
6689;SDS011;3382;51.576;8.076;2023-02-28T00:44:08;6.67;;;3.60;;
6689;SDS011;3382;51.576;8.076;2023-02-28T00:46:34;7.07;;;3.73;;
6689;SDS011;3382;51.576;8.076;2023-02-28T00:49:00;4.80;;;3.73;;
6689;SDS011;3382;51.576;8.076;2023-02-28T00:51:25;4.17;;;3.60;;
6689;SDS011;3382;51.576;8.076;2023-02-28T00:53:51;4.87;;;3.80;;
6689;SDS011;3382;51.576;8.076;2023-02-28T00:56:17;4.30;;;3.73;;
6689;SDS011;3382;51.576;8.076;2023-02-28T00:58:42;6.37;;;3.90;;
6689;SDS011;3382;51.576;8.076;2023-02-28T01:01:08;6.70;;;3.63;;
6689;SDS011;3382;51.576;8.076;2023-02-28T01:03:34;5.10;;;3.33;;
6689;SDS011;3382;51.576;8.076;2023-02-28T01:05:59;8.77;;;3.53;;
6689;SDS011;3382;51.576;8.076;2023-02-28T01:08:25;4.97;;;3.90;;
6689;SDS011;3382;51.576;8.076;2023-02-28T01:10:51;4.57;;;3.80;;
6689;SDS011;3382;51.576;8.076;2023-02-28T01:13:18;6.53;;;4.00;;
6689;SDS011;3382;51.576;8.076;2023-02-28T01:15:51;5.73;;;3.73;;
6689;SDS011;3382;51.576;8.076;2023-02-28T01:18:20;5.73;;;3.70;;
6689;SDS011;3382;51.576;8.076;2023-02-28T01:20:46;8.73;;;4.33;;
6689;SDS011;3382;51.576;8.076;2023-02-28T01:23:12;6.10;;;3.87;;
6689;SDS011;3382;51.576;8.076;2023-02-28T01:25:38;5.30;;;3.90;;
6689;SDS011;3382;51.576;8.076;2023-02-28T01:28:04;5.53;;;4.03;;
6689;SDS011;3382;51.576;8.076;2023-02-28T01:30:30;7.97;;;3.90;;
6689;SDS011;3382;51.576;8.076;2023-02-28T01:32:56;5.73;;;4.00;;
6689;SDS011;3382;51.576;8.076;2023-02-28T01:35:22;4.17;;;3.77;;
6689;SDS011;3382;51.576;8.076;2023-02-28T01:37:48;4.07;;;3.50;;
6689;SDS011;3382;51.576;8.076;2023-02-28T01:40:14;5.67;;;3.97;;
6689;SDS011;3382;51.576;8.076;2023-02-28T01:42:39;9.40;;;3.77;;
6689;SDS011;3382;51.576;8.076;2023-02-28T01:47:52;4.57;;;4.17;;
6689;SDS011;3382;51.576;8.076;2023-02-28T01:50:21;6.53;;;4.47;;
6689;SDS011;3382;51.576;8.076;2023-02-28T01:52:51;6.47;;;4.00;;
6689;SDS011;3382;51.576;8.076;2023-02-28T01:55:18;7.47;;;3.93;;
6689;SDS011;3382;51.576;8.076;2023-02-28T01:57:51;9.00;;;4.80;;
6689;SDS011;3382;51.576;8.076;2023-02-28T02:00:20;5.80;;;3.90;;
6689;SDS011;3382;51.576;8.076;2023-02-28T02:02:49;6.00;;;4.17;;
6689;SDS011;3382;51.576;8.076;2023-02-28T02:05:22;4.60;;;3.93;;
6689;SDS011;3382;51.576;8.076;2023-02-28T02:07:50;8.67;;;4.60;;
6689;SDS011;3382;51.576;8.076;2023-02-28T02:10:20;5.30;;;3.87;;
6689;SDS011;3382;51.576;8.076;2023-02-28T02:13:05;6.33;;;3.97;;
6689;SDS011;3382;51.576;8.076;2023-02-28T02:16:16;5.53;;;4.20;;
6689;SDS011;3382;51.576;8.076;2023-02-28T02:18:56;6.20;;;3.70;;
6689;SDS011;3382;51.576;8.076;2023-02-28T02:27:51;4.60;;;3.60;;
6689;SDS011;3382;51.576;8.076;2023-02-28T02:33:11;3.93;;;3.50;;
6689;SDS011;3382;51.576;8.076;2023-02-28T02:43:53;6.30;;;4.17;;
6689;SDS011;3382;51.576;8.076;2023-02-28T02:46:32;6.07;;;3.93;;
6689;SDS011;3382;51.576;8.076;2023-02-28T02:49:00;6.80;;;4.50;;
6689;SDS011;3382;51.576;8.076;2023-02-28T02:51:30;4.97;;;4.00;;
6689;SDS011;3382;51.576;8.076;2023-02-28T02:53:59;4.97;;;3.63;;
6689;SDS011;3382;51.576;8.076;2023-02-28T02:56:48;4.30;;;3.90;;
6689;SDS011;3382;51.576;8.076;2023-02-28T02:59:16;4.83;;;3.80;;
6689;SDS011;3382;51.576;8.076;2023-02-28T03:01:47;9.20;;;4.60;;
6689;SDS011;3382;51.576;8.076;2023-02-28T03:04:20;6.20;;;4.10;;
6689;SDS011;3382;51.576;8.076;2023-02-28T03:06:50;4.70;;;4.23;;
6689;SDS011;3382;51.576;8.076;2023-02-28T03:09:20;10.17;;;4.87;;
6689;SDS011;3382;51.576;8.076;2023-02-28T03:11:46;7.07;;;4.60;;
6689;SDS011;3382;51.576;8.076;2023-02-28T03:22:33;6.37;;;4.40;;
6689;SDS011;3382;51.576;8.076;2023-02-28T03:27:41;6.93;;;4.50;;
6689;SDS011;3382;51.576;8.076;2023-02-28T03:30:15;5.17;;;4.10;;
6689;SDS011;3382;51.576;8.076;2023-02-28T03:35:26;6.10;;;4.13;;
6689;SDS011;3382;51.576;8.076;2023-02-28T03:37:59;8.13;;;4.93;;
6689;SDS011;3382;51.576;8.076;2023-02-28T03:40:33;5.20;;;4.03;;
6689;SDS011;3382;51.576;8.076;2023-02-28T03:43:04;5.20;;;4.50;;
6689;SDS011;3382;51.576;8.076;2023-02-28T03:45:36;7.63;;;4.40;;
6689;SDS011;3382;51.576;8.076;2023-02-28T03:50:45;5.50;;;4.27;;
6689;SDS011;3382;51.576;8.076;2023-02-28T03:55:53;6.80;;;4.40;;
6689;SDS011;3382;51.576;8.076;2023-02-28T03:58:29;5.00;;;4.27;;
6689;SDS011;3382;51.576;8.076;2023-02-28T04:03:44;6.20;;;4.27;;
6689;SDS011;3382;51.576;8.076;2023-02-28T04:06:15;7.03;;;4.27;;
6689;SDS011;3382;51.576;8.076;2023-02-28T04:08:43;10.70;;;4.73;;
6689;SDS011;3382;51.576;8.076;2023-02-28T04:13:44;6.03;;;4.20;;
6689;SDS011;3382;51.576;8.076;2023-02-28T04:16:09;8.13;;;4.70;;
6689;SDS011;3382;51.576;8.076;2023-02-28T04:18:39;6.93;;;4.80;;
6689;SDS011;3382;51.576;8.076;2023-02-28T04:21:07;4.23;;;3.73;;
6689;SDS011;3382;51.576;8.076;2023-02-28T04:23:35;9.90;;;4.67;;
6689;SDS011;3382;51.576;8.076;2023-02-28T04:26:00;6.07;;;4.30;;
6689;SDS011;3382;51.576;8.076;2023-02-28T04:28:26;6.67;;;4.50;;
6689;SDS011;3382;51.576;8.076;2023-02-28T04:30:58;6.00;;;4.83;;
6689;SDS011;3382;51.576;8.076;2023-02-28T04:33:26;7.97;;;4.60;;
6689;SDS011;3382;51.576;8.076;2023-02-28T04:35:58;10.57;;;4.97;;
6689;SDS011;3382;51.576;8.076;2023-02-28T04:38:25;7.40;;;4.53;;
6689;SDS011;3382;51.576;8.076;2023-02-28T04:40:50;8.23;;;4.60;;
6689;SDS011;3382;51.576;8.076;2023-02-28T04:43:16;8.73;;;4.43;;
6689;SDS011;3382;51.576;8.076;2023-02-28T04:45:41;6.73;;;4.37;;
6689;SDS011;3382;51.576;8.076;2023-02-28T04:48:07;8.53;;;4.90;;
6689;SDS011;3382;51.576;8.076;2023-02-28T04:50:33;5.87;;;4.23;;
6689;SDS011;3382;51.576;8.076;2023-02-28T04:52:58;6.90;;;4.90;;
6689;SDS011;3382;51.576;8.076;2023-02-28T04:55:24;6.70;;;4.70;;
6689;SDS011;3382;51.576;8.076;2023-02-28T04:57:49;7.67;;;5.13;;
6689;SDS011;3382;51.576;8.076;2023-02-28T05:00:15;6.73;;;4.97;;
6689;SDS011;3382;51.576;8.076;2023-02-28T05:02:41;6.90;;;4.93;;
6689;SDS011;3382;51.576;8.076;2023-02-28T05:05:07;7.10;;;4.40;;
6689;SDS011;3382;51.576;8.076;2023-02-28T05:07:33;7.23;;;4.33;;
6689;SDS011;3382;51.576;8.076;2023-02-28T05:09:59;5.30;;;4.60;;
6689;SDS011;3382;51.576;8.076;2023-02-28T05:12:24;10.87;;;5.00;;
6689;SDS011;3382;51.576;8.076;2023-02-28T05:14:50;5.20;;;4.23;;
6689;SDS011;3382;51.576;8.076;2023-02-28T05:17:16;7.83;;;4.90;;
6689;SDS011;3382;51.576;8.076;2023-02-28T05:19:41;7.03;;;4.70;;
6689;SDS011;3382;51.576;8.076;2023-02-28T05:22:12;6.97;;;4.60;;
6689;SDS011;3382;51.576;8.076;2023-02-28T05:24:40;6.00;;;4.70;;
6689;SDS011;3382;51.576;8.076;2023-02-28T05:27:07;5.97;;;4.73;;
6689;SDS011;3382;51.576;8.076;2023-02-28T05:29:33;4.73;;;4.07;;
6689;SDS011;3382;51.576;8.076;2023-02-28T05:32:11;5.93;;;4.77;;
6689;SDS011;3382;51.576;8.076;2023-02-28T05:34:37;9.73;;;4.77;;
6689;SDS011;3382;51.576;8.076;2023-02-28T05:37:04;8.13;;;4.30;;
6689;SDS011;3382;51.576;8.076;2023-02-28T05:39:31;10.17;;;4.93;;
6689;SDS011;3382;51.576;8.076;2023-02-28T05:41:58;4.47;;;4.03;;
6689;SDS011;3382;51.576;8.076;2023-02-28T05:44:23;5.27;;;4.43;;
6689;SDS011;3382;51.576;8.076;2023-02-28T05:46:49;7.27;;;4.27;;
6689;SDS011;3382;51.576;8.076;2023-02-28T05:49:15;7.10;;;5.10;;
6689;SDS011;3382;51.576;8.076;2023-02-28T05:51:41;4.40;;;4.00;;
6689;SDS011;3382;51.576;8.076;2023-02-28T05:54:06;7.97;;;3.67;;
6689;SDS011;3382;51.576;8.076;2023-02-28T05:56:32;5.77;;;4.47;;
6689;SDS011;3382;51.576;8.076;2023-02-28T05:59:00;8.03;;;4.33;;
6689;SDS011;3382;51.576;8.076;2023-02-28T06:04:00;5.03;;;4.53;;
6689;SDS011;3382;51.576;8.076;2023-02-28T06:06:26;5.97;;;4.10;;
6689;SDS011;3382;51.576;8.076;2023-02-28T06:08:52;5.67;;;3.47;;
6689;SDS011;3382;51.576;8.076;2023-02-28T06:11:17;5.43;;;4.00;;
6689;SDS011;3382;51.576;8.076;2023-02-28T06:13:45;6.83;;;4.00;;
6689;SDS011;3382;51.576;8.076;2023-02-28T06:16:10;8.13;;;4.63;;
6689;SDS011;3382;51.576;8.076;2023-02-28T06:18:36;5.97;;;5.13;;
6689;SDS011;3382;51.576;8.076;2023-02-28T06:21:02;6.63;;;4.30;;
6689;SDS011;3382;51.576;8.076;2023-02-28T06:23:28;4.80;;;4.33;;
6689;SDS011;3382;51.576;8.076;2023-02-28T06:25:54;6.83;;;4.67;;
6689;SDS011;3382;51.576;8.076;2023-02-28T06:28:23;9.77;;;3.63;;
6689;SDS011;3382;51.576;8.076;2023-02-28T06:30:49;5.87;;;5.03;;
6689;SDS011;3382;51.576;8.076;2023-02-28T06:33:16;10.50;;;5.27;;
6689;SDS011;3382;51.576;8.076;2023-02-28T06:35:46;6.17;;;4.90;;
6689;SDS011;3382;51.576;8.076;2023-02-28T06:38:12;14.37;;;5.97;;
6689;SDS011;3382;51.576;8.076;2023-02-28T06:40:38;3.90;;;2.37;;
6689;SDS011;3382;51.576;8.076;2023-02-28T06:43:04;8.53;;;5.63;;
6689;SDS011;3382;51.576;8.076;2023-02-28T06:45:29;7.97;;;5.83;;
6689;SDS011;3382;51.576;8.076;2023-02-28T06:47:55;14.40;;;6.40;;
6689;SDS011;3382;51.576;8.076;2023-02-28T06:50:20;7.80;;;5.80;;
6689;SDS011;3382;51.576;8.076;2023-02-28T06:52:46;9.97;;;6.43;;
6689;SDS011;3382;51.576;8.076;2023-02-28T06:55:12;15.40;;;6.83;;
6689;SDS011;3382;51.576;8.076;2023-02-28T06:57:38;18.80;;;7.10;;
6689;SDS011;3382;51.576;8.076;2023-02-28T07:00:07;16.83;;;8.00;;
6689;SDS011;3382;51.576;8.076;2023-02-28T07:02:37;11.10;;;6.37;;
6689;SDS011;3382;51.576;8.076;2023-02-28T07:05:03;11.13;;;7.40;;
6689;SDS011;3382;51.576;8.076;2023-02-28T07:07:29;11.53;;;6.50;;
6689;SDS011;3382;51.576;8.076;2023-02-28T07:09:55;16.00;;;7.40;;
6689;SDS011;3382;51.576;8.076;2023-02-28T07:12:21;8.83;;;5.67;;
6689;SDS011;3382;51.576;8.076;2023-02-28T07:14:47;8.63;;;5.90;;
6689;SDS011;3382;51.576;8.076;2023-02-28T07:17:12;7.33;;;5.70;;
6689;SDS011;3382;51.576;8.076;2023-02-28T07:19:38;9.40;;;6.50;;
6689;SDS011;3382;51.576;8.076;2023-02-28T07:22:04;7.60;;;5.80;;
6689;SDS011;3382;51.576;8.076;2023-02-28T07:24:30;7.67;;;6.03;;
6689;SDS011;3382;51.576;8.076;2023-02-28T07:26:56;7.57;;;5.40;;
6689;SDS011;3382;51.576;8.076;2023-02-28T07:29:22;8.00;;;6.50;;
6689;SDS011;3382;51.576;8.076;2023-02-28T07:31:47;7.67;;;6.63;;
6689;SDS011;3382;51.576;8.076;2023-02-28T07:34:15;9.33;;;6.20;;
6689;SDS011;3382;51.576;8.076;2023-02-28T07:36:40;12.83;;;6.70;;
6689;SDS011;3382;51.576;8.076;2023-02-28T07:39:06;7.60;;;5.73;;
6689;SDS011;3382;51.576;8.076;2023-02-28T07:41:34;10.27;;;5.80;;
6689;SDS011;3382;51.576;8.076;2023-02-28T07:44:02;13.30;;;7.30;;
6689;SDS011;3382;51.576;8.076;2023-02-28T07:46:28;8.93;;;6.70;;
6689;SDS011;3382;51.576;8.076;2023-02-28T07:49:00;13.43;;;6.57;;
6689;SDS011;3382;51.576;8.076;2023-02-28T07:51:27;13.67;;;6.60;;
6689;SDS011;3382;51.576;8.076;2023-02-28T07:53:53;11.60;;;6.07;;
6689;SDS011;3382;51.576;8.076;2023-02-28T07:56:19;9.87;;;5.50;;
6689;SDS011;3382;51.576;8.076;2023-02-28T07:58:45;8.00;;;5.63;;
6689;SDS011;3382;51.576;8.076;2023-02-28T08:01:11;9.57;;;5.33;;
6689;SDS011;3382;51.576;8.076;2023-02-28T08:03:37;6.30;;;4.50;;
6689;SDS011;3382;51.576;8.076;2023-02-28T08:06:03;9.37;;;4.17;;
6689;SDS011;3382;51.576;8.076;2023-02-28T08:08:30;3.97;;;3.37;;
6689;SDS011;3382;51.576;8.076;2023-02-28T08:11:00;9.00;;;3.63;;
6689;SDS011;3382;51.576;8.076;2023-02-28T08:13:28;5.23;;;3.70;;
6689;SDS011;3382;51.576;8.076;2023-02-28T08:15:54;6.00;;;3.27;;
6689;SDS011;3382;51.576;8.076;2023-02-28T08:18:20;6.80;;;3.43;;
6689;SDS011;3382;51.576;8.076;2023-02-28T08:20:47;4.50;;;3.00;;
6689;SDS011;3382;51.576;8.076;2023-02-28T08:23:13;6.77;;;3.23;;
6689;SDS011;3382;51.576;8.076;2023-02-28T08:25:38;4.37;;;3.30;;
6689;SDS011;3382;51.576;8.076;2023-02-28T08:28:04;5.00;;;3.20;;
6689;SDS011;3382;51.576;8.076;2023-02-28T08:30:30;6.77;;;3.70;;
6689;SDS011;3382;51.576;8.076;2023-02-28T08:32:55;9.70;;;3.97;;
6689;SDS011;3382;51.576;8.076;2023-02-28T08:35:21;7.37;;;3.90;;
6689;SDS011;3382;51.576;8.076;2023-02-28T08:37:47;5.40;;;3.70;;
6689;SDS011;3382;51.576;8.076;2023-02-28T08:40:14;10.50;;;3.57;;
6689;SDS011;3382;51.576;8.076;2023-02-28T08:42:43;6.90;;;3.60;;
6689;SDS011;3382;51.576;8.076;2023-02-28T08:45:13;8.93;;;4.00;;
6689;SDS011;3382;51.576;8.076;2023-02-28T08:47:39;9.00;;;3.40;;
6689;SDS011;3382;51.576;8.076;2023-02-28T08:50:06;3.97;;;3.30;;
6689;SDS011;3382;51.576;8.076;2023-02-28T08:52:32;4.93;;;3.50;;
6689;SDS011;3382;51.576;8.076;2023-02-28T08:54:58;4.70;;;3.47;;
6689;SDS011;3382;51.576;8.076;2023-02-28T08:57:24;11.47;;;5.17;;
6689;SDS011;3382;51.576;8.076;2023-02-28T08:59:51;21.20;;;12.73;;
6689;SDS011;3382;51.576;8.076;2023-02-28T09:02:17;9.83;;;4.90;;
6689;SDS011;3382;51.576;8.076;2023-02-28T09:04:43;7.40;;;3.43;;
6689;SDS011;3382;51.576;8.076;2023-02-28T09:07:10;10.47;;;5.67;;
6689;SDS011;3382;51.576;8.076;2023-02-28T09:09:36;6.03;;;4.10;;
6689;SDS011;3382;51.576;8.076;2023-02-28T09:12:02;26.27;;;14.23;;
6689;SDS011;3382;51.576;8.076;2023-02-28T09:14:28;8.93;;;4.03;;
6689;SDS011;3382;51.576;8.076;2023-02-28T09:16:53;4.63;;;3.70;;
6689;SDS011;3382;51.576;8.076;2023-02-28T09:19:19;6.97;;;3.33;;
6689;SDS011;3382;51.576;8.076;2023-02-28T09:21:45;4.33;;;2.80;;
6689;SDS011;3382;51.576;8.076;2023-02-28T09:24:11;6.70;;;3.13;;
6689;SDS011;3382;51.576;8.076;2023-02-28T09:26:39;6.63;;;2.73;;
6689;SDS011;3382;51.576;8.076;2023-02-28T09:29:05;6.70;;;3.30;;
6689;SDS011;3382;51.576;8.076;2023-02-28T09:31:31;10.33;;;2.80;;
6689;SDS011;3382;51.576;8.076;2023-02-28T09:33:58;3.60;;;2.63;;
6689;SDS011;3382;51.576;8.076;2023-02-28T09:36:24;3.83;;;2.70;;
6689;SDS011;3382;51.576;8.076;2023-02-28T09:38:51;3.67;;;2.50;;
6689;SDS011;3382;51.576;8.076;2023-02-28T09:42:00;4.40;;;2.80;;
6689;SDS011;3382;51.576;8.076;2023-02-28T09:50:04;4.17;;;3.33;;
6689;SDS011;3382;51.576;8.076;2023-02-28T09:52:40;5.70;;;2.67;;
6689;SDS011;3382;51.576;8.076;2023-02-28T09:55:27;4.07;;;3.10;;
6689;SDS011;3382;51.576;8.076;2023-02-28T09:58:23;3.13;;;2.50;;
6689;SDS011;3382;51.576;8.076;2023-02-28T10:01:05;2.77;;;2.30;;
6689;SDS011;3382;51.576;8.076;2023-02-28T10:06:20;2.57;;;2.10;;
6689;SDS011;3382;51.576;8.076;2023-02-28T10:08:51;3.00;;;2.30;;
6689;SDS011;3382;51.576;8.076;2023-02-28T10:11:23;4.27;;;2.50;;
6689;SDS011;3382;51.576;8.076;2023-02-28T10:29:52;14.40;;;2.27;;
6689;SDS011;3382;51.576;8.076;2023-02-28T10:32:30;4.00;;;2.40;;
6689;SDS011;3382;51.576;8.076;2023-02-28T10:37:32;3.30;;;2.17;;
6689;SDS011;3382;51.576;8.076;2023-02-28T10:40:03;3.07;;;2.43;;
6689;SDS011;3382;51.576;8.076;2023-02-28T10:45:32;3.67;;;2.63;;
6689;SDS011;3382;51.576;8.076;2023-02-28T10:48:01;4.30;;;2.60;;
6689;SDS011;3382;51.576;8.076;2023-02-28T10:55:59;3.93;;;3.00;;
6689;SDS011;3382;51.576;8.076;2023-02-28T11:01:16;3.10;;;2.80;;
6689;SDS011;3382;51.576;8.076;2023-02-28T11:03:46;11.17;;;3.23;;
6689;SDS011;3382;51.576;8.076;2023-02-28T11:06:17;7.47;;;2.83;;
6689;SDS011;3382;51.576;8.076;2023-02-28T11:08:58;3.17;;;2.87;;
6689;SDS011;3382;51.576;8.076;2023-02-28T11:11:26;3.47;;;2.93;;
6689;SDS011;3382;51.576;8.076;2023-02-28T11:13:55;4.27;;;2.80;;
6689;SDS011;3382;51.576;8.076;2023-02-28T11:16:31;3.27;;;2.83;;
6689;SDS011;3382;51.576;8.076;2023-02-28T11:19:01;4.33;;;3.23;;
6689;SDS011;3382;51.576;8.076;2023-02-28T11:21:32;4.57;;;3.23;;
6689;SDS011;3382;51.576;8.076;2023-02-28T11:24:17;8.63;;;3.10;;
6689;SDS011;3382;51.576;8.076;2023-02-28T11:26:58;3.63;;;3.00;;
6689;SDS011;3382;51.576;8.076;2023-02-28T11:29:26;4.53;;;3.20;;
6689;SDS011;3382;51.576;8.076;2023-02-28T11:32:05;4.23;;;3.00;;
6689;SDS011;3382;51.576;8.076;2023-02-28T11:34:31;3.40;;;3.10;;
6689;SDS011;3382;51.576;8.076;2023-02-28T11:36:58;5.07;;;3.50;;
6689;SDS011;3382;51.576;8.076;2023-02-28T11:39:26;3.17;;;2.93;;
6689;SDS011;3382;51.576;8.076;2023-02-28T11:42:07;6.43;;;3.47;;
6689;SDS011;3382;51.576;8.076;2023-02-28T11:56:06;5.27;;;3.00;;
6689;SDS011;3382;51.576;8.076;2023-02-28T11:58:55;3.60;;;2.90;;
6689;SDS011;3382;51.576;8.076;2023-02-28T12:12:28;4.03;;;2.90;;
6689;SDS011;3382;51.576;8.076;2023-02-28T12:20:21;3.93;;;2.70;;
6689;SDS011;3382;51.576;8.076;2023-02-28T12:28:46;4.10;;;3.43;;
6689;SDS011;3382;51.576;8.076;2023-02-28T12:34:36;5.77;;;3.13;;
6689;SDS011;3382;51.576;8.076;2023-02-28T12:37:06;3.83;;;3.43;;
6689;SDS011;3382;51.576;8.076;2023-02-28T12:39:36;3.20;;;2.80;;
6689;SDS011;3382;51.576;8.076;2023-02-28T12:42:09;3.70;;;3.00;;
6689;SDS011;3382;51.576;8.076;2023-02-28T12:45:21;3.93;;;3.43;;
6689;SDS011;3382;51.576;8.076;2023-02-28T12:47:33;5.40;;;3.33;;
6689;SDS011;3382;51.576;8.076;2023-02-28T12:50:02;3.07;;;2.77;;
6689;SDS011;3382;51.576;8.076;2023-02-28T13:03:59;3.23;;;3.00;;
6689;SDS011;3382;51.576;8.076;2023-02-28T13:09:21;4.90;;;3.13;;
6689;SDS011;3382;51.576;8.076;2023-02-28T13:11:50;6.53;;;2.97;;
6689;SDS011;3382;51.576;8.076;2023-02-28T13:19:26;4.37;;;3.13;;
6689;SDS011;3382;51.576;8.076;2023-02-28T13:21:54;3.40;;;3.10;;
6689;SDS011;3382;51.576;8.076;2023-02-28T13:24:42;3.87;;;3.37;;
6689;SDS011;3382;51.576;8.076;2023-02-28T13:29:37;4.13;;;3.20;;
6689;SDS011;3382;51.576;8.076;2023-02-28T13:34:38;3.60;;;3.27;;
6689;SDS011;3382;51.576;8.076;2023-02-28T13:39:55;3.60;;;3.27;;
6689;SDS011;3382;51.576;8.076;2023-02-28T13:42:36;3.37;;;2.80;;
6689;SDS011;3382;51.576;8.076;2023-02-28T13:45:21;3.53;;;3.23;;
6689;SDS011;3382;51.576;8.076;2023-02-28T13:47:53;8.20;;;3.07;;
6689;SDS011;3382;51.576;8.076;2023-02-28T14:06:35;4.87;;;3.07;;
6689;SDS011;3382;51.576;8.076;2023-02-28T14:09:06;3.37;;;3.07;;
6689;SDS011;3382;51.576;8.076;2023-02-28T14:11:44;4.60;;;3.30;;
6689;SDS011;3382;51.576;8.076;2023-02-28T14:14:53;3.57;;;3.13;;
6689;SDS011;3382;51.576;8.076;2023-02-28T14:16:59;4.33;;;3.00;;
6689;SDS011;3382;51.576;8.076;2023-02-28T14:19:27;7.23;;;3.33;;
6689;SDS011;3382;51.576;8.076;2023-02-28T14:38:04;7.23;;;3.43;;
6689;SDS011;3382;51.576;8.076;2023-02-28T14:40:33;5.67;;;3.37;;
6689;SDS011;3382;51.576;8.076;2023-02-28T14:43:04;3.17;;;2.83;;
6689;SDS011;3382;51.576;8.076;2023-02-28T14:45:32;4.80;;;3.20;;
6689;SDS011;3382;51.576;8.076;2023-02-28T14:47:59;5.23;;;3.13;;
6689;SDS011;3382;51.576;8.076;2023-02-28T14:50:34;5.90;;;2.80;;
6689;SDS011;3382;51.576;8.076;2023-02-28T14:53:01;13.87;;;3.30;;
6689;SDS011;3382;51.576;8.076;2023-02-28T14:55:28;5.57;;;3.23;;
6689;SDS011;3382;51.576;8.076;2023-02-28T14:57:57;5.57;;;3.10;;
6689;SDS011;3382;51.576;8.076;2023-02-28T15:00:29;5.20;;;3.03;;
6689;SDS011;3382;51.576;8.076;2023-02-28T15:02:57;5.23;;;3.00;;
6689;SDS011;3382;51.576;8.076;2023-02-28T15:08:05;4.93;;;3.43;;
6689;SDS011;3382;51.576;8.076;2023-02-28T15:10:31;3.90;;;3.10;;
6689;SDS011;3382;51.576;8.076;2023-02-28T15:12:58;4.40;;;3.23;;
6689;SDS011;3382;51.576;8.076;2023-02-28T15:20:55;5.03;;;3.13;;
6689;SDS011;3382;51.576;8.076;2023-02-28T15:23:23;7.67;;;3.40;;
6689;SDS011;3382;51.576;8.076;2023-02-28T15:25:49;3.40;;;2.90;;
6689;SDS011;3382;51.576;8.076;2023-02-28T15:28:18;3.37;;;3.07;;
6689;SDS011;3382;51.576;8.076;2023-02-28T15:30:54;9.37;;;3.17;;
6689;SDS011;3382;51.576;8.076;2023-02-28T15:33:21;5.20;;;3.40;;
6689;SDS011;3382;51.576;8.076;2023-02-28T15:35:51;4.20;;;3.13;;
6689;SDS011;3382;51.576;8.076;2023-02-28T15:38:28;4.57;;;3.07;;
6689;SDS011;3382;51.576;8.076;2023-02-28T15:40:55;5.50;;;3.23;;
6689;SDS011;3382;51.576;8.076;2023-02-28T15:46:09;3.83;;;3.43;;
6689;SDS011;3382;51.576;8.076;2023-02-28T15:48:58;4.47;;;3.13;;
6689;SDS011;3382;51.576;8.076;2023-02-28T15:56:33;4.60;;;3.63;;
6689;SDS011;3382;51.576;8.076;2023-02-28T15:59:20;5.03;;;3.53;;
6689;SDS011;3382;51.576;8.076;2023-02-28T16:02:01;4.00;;;3.40;;
6689;SDS011;3382;51.576;8.076;2023-02-28T16:05:00;4.00;;;3.00;;
6689;SDS011;3382;51.576;8.076;2023-02-28T16:07:26;2.17;;;1.97;;
6689;SDS011;3382;51.576;8.076;2023-02-28T16:09:52;4.80;;;3.20;;
6689;SDS011;3382;51.576;8.076;2023-02-28T16:12:18;3.20;;;2.90;;
6689;SDS011;3382;51.576;8.076;2023-02-28T16:14:45;3.47;;;2.97;;
6689;SDS011;3382;51.576;8.076;2023-02-28T16:17:19;5.20;;;3.10;;
6689;SDS011;3382;51.576;8.076;2023-02-28T16:19:47;3.93;;;3.40;;
6689;SDS011;3382;51.576;8.076;2023-02-28T16:22:12;5.47;;;3.87;;
6689;SDS011;3382;51.576;8.076;2023-02-28T16:24:38;4.67;;;3.27;;
6689;SDS011;3382;51.576;8.076;2023-02-28T16:27:05;4.13;;;3.40;;
6689;SDS011;3382;51.576;8.076;2023-02-28T16:29:32;4.57;;;3.40;;
6689;SDS011;3382;51.576;8.076;2023-02-28T16:32:00;4.07;;;3.30;;
6689;SDS011;3382;51.576;8.076;2023-02-28T16:34:25;4.43;;;3.50;;
6689;SDS011;3382;51.576;8.076;2023-02-28T16:36:51;4.13;;;3.30;;
6689;SDS011;3382;51.576;8.076;2023-02-28T16:39:17;4.50;;;2.80;;
6689;SDS011;3382;51.576;8.076;2023-02-28T16:41:45;4.87;;;3.10;;
6689;SDS011;3382;51.576;8.076;2023-02-28T16:44:34;4.30;;;3.20;;
6689;SDS011;3382;51.576;8.076;2023-02-28T16:47:00;4.27;;;3.17;;
6689;SDS011;3382;51.576;8.076;2023-02-28T16:49:26;6.40;;;3.50;;
6689;SDS011;3382;51.576;8.076;2023-02-28T16:51:52;3.80;;;3.20;;
6689;SDS011;3382;51.576;8.076;2023-02-28T16:54:18;5.13;;;3.53;;
6689;SDS011;3382;51.576;8.076;2023-02-28T16:56:44;4.20;;;2.00;;
6689;SDS011;3382;51.576;8.076;2023-02-28T16:59:11;5.93;;;3.67;;
6689;SDS011;3382;51.576;8.076;2023-02-28T17:01:37;6.40;;;3.70;;
6689;SDS011;3382;51.576;8.076;2023-02-28T17:04:03;15.17;;;3.60;;
6689;SDS011;3382;51.576;8.076;2023-02-28T17:06:29;5.40;;;4.00;;
6689;SDS011;3382;51.576;8.076;2023-02-28T17:08:56;3.80;;;3.50;;
6689;SDS011;3382;51.576;8.076;2023-02-28T17:11:23;5.40;;;4.20;;
6689;SDS011;3382;51.576;8.076;2023-02-28T17:13:49;4.27;;;3.73;;
6689;SDS011;3382;51.576;8.076;2023-02-28T17:16:28;6.47;;;5.50;;
6689;SDS011;3382;51.576;8.076;2023-02-28T17:19:00;7.23;;;6.47;;
6689;SDS011;3382;51.576;8.076;2023-02-28T17:21:30;7.37;;;4.60;;
6689;SDS011;3382;51.576;8.076;2023-02-28T17:23:57;9.97;;;4.20;;
6689;SDS011;3382;51.576;8.076;2023-02-28T17:26:23;8.33;;;4.33;;
6689;SDS011;3382;51.576;8.076;2023-02-28T17:28:49;5.33;;;4.83;;
6689;SDS011;3382;51.576;8.076;2023-02-28T17:31:16;8.60;;;5.10;;
6689;SDS011;3382;51.576;8.076;2023-02-28T17:33:43;6.70;;;4.30;;
6689;SDS011;3382;51.576;8.076;2023-02-28T17:36:11;5.77;;;5.03;;
6689;SDS011;3382;51.576;8.076;2023-02-28T17:38:39;5.83;;;4.97;;
6689;SDS011;3382;51.576;8.076;2023-02-28T17:41:06;4.70;;;4.13;;
6689;SDS011;3382;51.576;8.076;2023-02-28T17:43:32;6.20;;;4.27;;
6689;SDS011;3382;51.576;8.076;2023-02-28T17:45:58;7.50;;;4.33;;
6689;SDS011;3382;51.576;8.076;2023-02-28T17:48:24;7.77;;;4.33;;
6689;SDS011;3382;51.576;8.076;2023-02-28T17:50:50;5.53;;;4.00;;
6689;SDS011;3382;51.576;8.076;2023-02-28T17:53:16;4.70;;;3.77;;
6689;SDS011;3382;51.576;8.076;2023-02-28T17:55:41;9.13;;;4.10;;
6689;SDS011;3382;51.576;8.076;2023-02-28T17:58:08;9.50;;;4.90;;
6689;SDS011;3382;51.576;8.076;2023-02-28T18:00:36;7.40;;;4.63;;
6689;SDS011;3382;51.576;8.076;2023-02-28T18:03:03;6.13;;;4.17;;
6689;SDS011;3382;51.576;8.076;2023-02-28T18:05:28;5.63;;;4.47;;
6689;SDS011;3382;51.576;8.076;2023-02-28T18:07:54;7.10;;;4.57;;
6689;SDS011;3382;51.576;8.076;2023-02-28T18:10:21;8.50;;;5.07;;
6689;SDS011;3382;51.576;8.076;2023-02-28T18:12:47;5.63;;;4.73;;
6689;SDS011;3382;51.576;8.076;2023-02-28T18:15:16;10.47;;;6.33;;
6689;SDS011;3382;51.576;8.076;2023-02-28T18:17:44;10.73;;;8.10;;
6689;SDS011;3382;51.576;8.076;2023-02-28T18:20:11;11.10;;;7.77;;
6689;SDS011;3382;51.576;8.076;2023-02-28T18:22:37;9.30;;;7.27;;
6689;SDS011;3382;51.576;8.076;2023-02-28T18:25:04;17.50;;;11.83;;
6689;SDS011;3382;51.576;8.076;2023-02-28T18:27:30;13.33;;;9.73;;
6689;SDS011;3382;51.576;8.076;2023-02-28T18:29:55;14.53;;;9.73;;
6689;SDS011;3382;51.576;8.076;2023-02-28T18:32:21;10.53;;;7.03;;
6689;SDS011;3382;51.576;8.076;2023-02-28T18:34:47;27.67;;;8.47;;
6689;SDS011;3382;51.576;8.076;2023-02-28T18:37:12;22.20;;;11.43;;
6689;SDS011;3382;51.576;8.076;2023-02-28T18:39:40;22.07;;;15.77;;